• Join FlightAware (Why Join?)
  • Login
  • US Flag 
12:43PM EDT


 

Airport Tracker/Info


-or-


 

Live Flight TrackerFlight Track Log ✈ UAL5915 ✈ 29-Apr-2013 ✈ KMEM - KORD

Flight Track Log - Related Links

Times and Time Zones

All times are in EDT time to prevent confusion due to time zone crossing. See the UAL5915 flight status page for this flight to view local times or setup timezone preferences in your user account.

Time Position Orientation Groundspeed Altitude Reporting Facility
EDT Latitude Longitude Course Direction KTS MPH feet Rate Location/Type
09:09AM 35.0500 -89.9667 360° North 172 198 800  Level KMEM
09:10AM 35.0833 -89.9667 360° North 174 200 1,900 1,680 Climbing KMEM
09:11AM 35.1333 -90.0000 331° Northwest 243 280 3,400 2,100 Climbing KMEM
09:12AM 35.2167 -90.0000 360° North 249 287 6,100 2,520 Climbing KMEM
09:13AM 35.2833 -90.0167 348° North 248 285 8,500 1,920 Climbing KMEM
09:14AM 35.3761 -90.0236 357° North 276 318 10,600 1,140 Climbing Memphis Center
09:15AM 35.4636 -90.0283 357° North 293 337 11,200 1,020 Climbing Memphis Center
09:16AM 35.5597 -90.0331 358° North 322 371 12,700 1,500 Climbing Memphis Center
09:17AM 35.6556 -90.0403 356° North 340 391 14,300 1,500 Climbing Memphis Center
09:18AM 35.7369 -90.0475 356° North 335 386 15,800 1,380 Climbing Memphis Center
09:19AM 35.8433 -90.0575 356° North 335 386 17,100 1,080 Climbing Memphis Center
09:20AM 35.9414 -90.0853 347° North 340 391 18,000 900 Climbing Memphis Center
09:21AM 36.0417 -90.1183 345° North 353 406 19,000 960 Climbing Memphis Center
09:22AM 36.1417 -90.1489 346° North 364 419 20,000 960 Climbing Memphis Center
09:23AM 36.2481 -90.1819 346° North 371 427 21,000 900 Climbing Memphis Center
09:24AM 36.3525 -90.2153 346° North 382 440 21,900 900 Climbing Memphis Center
09:25AM 36.4586 -90.2486 346° North 382 440 22,900 960 Climbing Memphis Center
09:26AM 36.5631 -90.2819 346° North 382 440 23,900 960 Climbing Memphis Center
09:27AM 36.6694 -90.3181 345° North 387 445 24,900 960 Climbing Memphis Center
09:28AM 36.7736 -90.3492 347° North 387 445 25,900 900 Climbing Memphis Center
09:29AM 36.9464 -90.3978 347° North 390 449 27,400 960 Climbing Kansas City Center
09:31AM 37.0511 -90.4314 346° North 388 447 28,600 1,140 Climbing Kansas City Center
09:32AM 37.1533 -90.4650 345° North 382 440 29,800 1,140 Climbing Kansas City Center
09:33AM 37.2578 -90.4722 357° North 376 433 31,000 1,080 Climbing Kansas City Center
09:34AM 37.3569 -90.4767 358° North 377 434 32,100 1,020 Climbing Kansas City Center
09:35AM 37.4617 -90.4800 359° North 377 434 33,200 900 Climbing Kansas City Center
09:36AM 37.5867 -90.4853 358° North 374 430 34,000 360 Climbing Kansas City Center
09:37AM 37.6975 -90.4919 357° North 392 451 34,000  Level Kansas City Center
09:38AM 37.8147 -90.4972 358° North 413 475 34,000  Level Kansas City Center
09:39AM 37.9350 -90.5031 358° North 429 494 34,000  Level Kansas City Center
09:40AM 38.0536 -90.5075 358° North 427 491 34,000  Level Kansas City Center
09:41AM 38.1711 -90.5128 358° North 423 487 34,000  Level Kansas City Center
09:42AM 38.3114 -90.5186 358° North 420 483 34,000  Level Kansas City Center
09:43AM 38.4233 -90.5239 358° North 418 481 34,000  Level Kansas City Center
09:44AM 38.5419 -90.5300 358° North 422 486 34,000 -120 Level Kansas City Center
09:45AM 38.6606 -90.5303 360° North 424 488 33,800 -540 Descending Kansas City Center
09:46AM 38.7797 -90.4908 14° North 438 504 33,000 -420 Descending Kansas City Center
09:47AM 38.9189 -90.4394 16° North 435 501 33,000  Level Kansas City Center
09:48AM 39.0244 -90.3986 17° North 433 498 33,000  Level Kansas City Center
09:49AM 39.1428 -90.3556 16° North 438 504 33,000  Level Kansas City Center
09:50AM 39.2597 -90.3114 16° North 438 504 33,000  Level Kansas City Center
09:51AM 39.3772 -90.2678 16° North 439 505 33,000  Level Kansas City Center
09:52AM 39.5172 -90.2156 16° North 438 504 33,000  Level Kansas City Center
09:53AM 39.6350 -90.1722 16° North 439 505 33,000  Level Kansas City Center
09:54AM 39.7450 -90.1303 16° North 438 504 33,000  Level Kansas City Center
09:55AM 39.8633 -90.0858 16° North 440 506 33,000  Level Kansas City Center
09:56AM 39.9108 -90.0692 15° North 441 507 33,000  Level Chicago Center
09:57AM 40.0289 -90.0247 16° North 443 510 33,000  Level Chicago Center
09:58AM 40.1475 -89.9792 16° North 444 511 33,000  Level Chicago Center
09:59AM 40.2658 -89.9347 16° North 442 509 33,000  Level Chicago Center
10:00AM 40.4072 -89.8797 16° North 442 509 33,000  Level Chicago Center
10:01AM 40.5200 -89.8367 16° North 442 509 33,000  Level Chicago Center
10:02AM 40.6364 -89.7908 17° North 440 506 33,000  Level Chicago Center
10:03AM 40.7569 -89.7472 15° North 444 511 33,000 -1,680 Level Chicago Center
10:04AM 40.8944 -89.6922 17° North 433 498 29,600 -3,360 Descending Chicago Center
10:05AM 41.0075 -89.6483 16° North 437 503 26,100 -2,520 Descending Chicago Center
10:06AM 41.0997 -89.5489 39° Northeast 442 509 24,500 -1,620 Descending Chicago Center
10:07AM 41.1711 -89.4056 56° Northeast 460 529 22,800 -2,280 Descending Chicago Center
10:08AM 41.2397 -89.2678 56° Northeast 457 526 19,900 -2,760 Descending Chicago Center
10:09AM 41.3025 -89.1375 57° Northeast 420 483 17,100 -2,880 Descending Chicago Center
10:10AM 41.3764 -88.9864 57° Northeast 409 471 14,000 -2,520 Descending Chicago Center
10:11AM 41.4361 -88.8628 57° Northeast 401 461 12,000 -1,500 Descending Chicago Center
10:12AM 41.4947 -88.7431 57° Northeast 392 451 11,000 -540 Descending Chicago Center
10:13AM 41.5481 -88.6178 60° Northeast 389 448 11,000  Level Chicago Center
10:14AM 41.5992 -88.4894 62° Northeast 391 450 11,000  Level Chicago Center
10:15AM 41.6639 -88.3717 54° Northeast 390 449 11,000  Level Chicago Center
10:16AM 41.7303 -88.2583 52° Northeast 388 447 11,000 -420 Level Chicago Center
10:17AM 41.8067 -88.1275 52° Northeast 375 432 10,200 -1,020 Descending Chicago Center
10:18AM 41.8575 -88.0372 53° Northeast 309 356 8,900 -1,500 Descending Chicago Center
10:19AM 41.8833 -88.0000 47° Northeast 293 337 8,000 -1,380 Descending Chicago TRACON
10:20AM 41.8833 -87.9000 90° East 284 327 7,100 -600 Descending Chicago TRACON
10:21AM 41.8833 -87.8167 90° East 205 236 6,900 -900 Descending Chicago TRACON
10:22AM 41.8833 -87.7500 90° East 195 224 5,400 -1,500 Descending Chicago TRACON
10:23AM 41.9333 -87.7167 26° Northeast 189 217 4,000 -1,380 Descending Chicago TRACON
10:24AM 41.9667 -87.7500 323° Northwest 178 205 2,800 -1,140 Descending Chicago TRACON
10:25AM 41.9667 -87.8167 270° West 147 169 1,800 -900 Descending Chicago TRACON
10:26AM 41.9667 -87.8500 270° West 132 152 1,100 -780 Descending Chicago TRACON